sensor_id;sensor_type;location;lat;lon;timestamp;P1;durP1;ratioP1;P2;durP2;ratioP2
14890;SDS011;7537;48.014;11.590;2023-04-03T00:00:11;11.04;;;9.64;;
14890;SDS011;7537;48.014;11.590;2023-04-03T00:05:39;11.04;;;9.44;;
14890;SDS011;7537;48.014;11.590;2023-04-03T00:11:07;11.22;;;10.32;;
14890;SDS011;7537;48.014;11.590;2023-04-03T00:16:34;12.93;;;11.13;;
14890;SDS011;7537;48.014;11.590;2023-04-03T00:22:04;11.83;;;10.22;;
14890;SDS011;7537;48.014;11.590;2023-04-03T00:27:31;11.76;;;10.90;;
14890;SDS011;7537;48.014;11.590;2023-04-03T00:33:02;8.24;;;8.31;;
14890;SDS011;7537;48.014;11.590;2023-04-03T00:38:30;11.24;;;9.71;;
14890;SDS011;7537;48.014;11.590;2023-04-03T00:44:00;9.86;;;9.90;;
14890;SDS011;7537;48.014;11.590;2023-04-03T00:49:27;10.68;;;9.63;;
14890;SDS011;7537;48.014;11.590;2023-04-03T00:54:57;12.50;;;9.68;;
14890;SDS011;7537;48.014;11.590;2023-04-03T01:00:25;11.09;;;9.61;;
14890;SDS011;7537;48.014;11.590;2023-04-03T01:05:53;10.01;;;9.53;;
14890;SDS011;7537;48.014;11.590;2023-04-03T01:11:20;11.18;;;10.36;;
14890;SDS011;7537;48.014;11.590;2023-04-03T01:16:52;13.31;;;10.69;;
14890;SDS011;7537;48.014;11.590;2023-04-03T01:22:21;10.76;;;9.67;;
14890;SDS011;7537;48.014;11.590;2023-04-03T01:27:50;10.14;;;9.61;;
14890;SDS011;7537;48.014;11.590;2023-04-03T01:33:21;14.11;;;10.71;;
14890;SDS011;7537;48.014;11.590;2023-04-03T01:38:49;11.02;;;10.17;;
14890;SDS011;7537;48.014;11.590;2023-04-03T01:44:17;10.62;;;9.26;;
14890;SDS011;7537;48.014;11.590;2023-04-03T01:49:46;12.85;;;9.66;;
14890;SDS011;7537;48.014;11.590;2023-04-03T01:55:14;10.76;;;9.27;;
14890;SDS011;7537;48.014;11.590;2023-04-03T02:00:41;9.66;;;8.81;;
14890;SDS011;7537;48.014;11.590;2023-04-03T02:06:09;9.16;;;9.22;;
14890;SDS011;7537;48.014;11.590;2023-04-03T02:11:36;10.06;;;9.42;;
14890;SDS011;7537;48.014;11.590;2023-04-03T02:17:04;10.49;;;9.49;;
14890;SDS011;7537;48.014;11.590;2023-04-03T02:22:31;11.91;;;10.12;;
14890;SDS011;7537;48.014;11.590;2023-04-03T02:28:02;13.62;;;9.98;;
14890;SDS011;7537;48.014;11.590;2023-04-03T02:33:33;10.13;;;9.14;;
14890;SDS011;7537;48.014;11.590;2023-04-03T02:39:00;10.47;;;9.57;;
14890;SDS011;7537;48.014;11.590;2023-04-03T02:44:36;11.97;;;10.31;;
14890;SDS011;7537;48.014;11.590;2023-04-03T02:50:05;10.01;;;9.82;;
14890;SDS011;7537;48.014;11.590;2023-04-03T02:55:32;11.55;;;10.29;;
14890;SDS011;7537;48.014;11.590;2023-04-03T03:01:03;11.53;;;10.72;;
14890;SDS011;7537;48.014;11.590;2023-04-03T03:06:37;11.22;;;10.55;;
14890;SDS011;7537;48.014;11.590;2023-04-03T03:12:05;11.60;;;10.09;;
14890;SDS011;7537;48.014;11.590;2023-04-03T03:17:32;12.58;;;9.94;;
14890;SDS011;7537;48.014;11.590;2023-04-03T03:23:00;12.54;;;9.89;;
14890;SDS011;7537;48.014;11.590;2023-04-03T03:28:27;10.82;;;10.45;;
14890;SDS011;7537;48.014;11.590;2023-04-03T03:34:03;10.84;;;10.67;;
14890;SDS011;7537;48.014;11.590;2023-04-03T03:39:33;10.48;;;8.26;;
14890;SDS011;7537;48.014;11.590;2023-04-03T03:45:01;13.45;;;10.20;;
14890;SDS011;7537;48.014;11.590;2023-04-03T03:50:29;11.76;;;10.51;;
14890;SDS011;7537;48.014;11.590;2023-04-03T03:56:10;13.02;;;10.18;;
14890;SDS011;7537;48.014;11.590;2023-04-03T04:01:44;11.65;;;9.64;;
14890;SDS011;7537;48.014;11.590;2023-04-03T04:07:11;10.68;;;9.59;;
14890;SDS011;7537;48.014;11.590;2023-04-03T04:12:39;10.23;;;9.34;;
14890;SDS011;7537;48.014;11.590;2023-04-03T04:18:06;7.89;;;7.32;;
14890;SDS011;7537;48.014;11.590;2023-04-03T04:23:34;7.83;;;7.91;;
14890;SDS011;7537;48.014;11.590;2023-04-03T04:29:01;8.32;;;6.98;;
14890;SDS011;7537;48.014;11.590;2023-04-03T04:34:36;6.93;;;7.03;;
14890;SDS011;7537;48.014;11.590;2023-04-03T04:40:05;9.26;;;6.91;;
14890;SDS011;7537;48.014;11.590;2023-04-03T04:45:33;7.27;;;6.32;;
14890;SDS011;7537;48.014;11.590;2023-04-03T04:51:00;13.35;;;7.07;;
14890;SDS011;7537;48.014;11.590;2023-04-03T04:56:27;6.36;;;6.34;;
14890;SDS011;7537;48.014;11.590;2023-04-03T05:01:55;7.33;;;7.11;;
14890;SDS011;7537;48.014;11.590;2023-04-03T05:07:22;6.72;;;6.32;;
14890;SDS011;7537;48.014;11.590;2023-04-03T05:12:50;9.52;;;6.34;;
14890;SDS011;7537;48.014;11.590;2023-04-03T05:18:17;8.95;;;7.33;;
14890;SDS011;7537;48.014;11.590;2023-04-03T05:23:45;7.38;;;6.74;;
14890;SDS011;7537;48.014;11.590;2023-04-03T05:29:12;6.34;;;6.31;;
14890;SDS011;7537;48.014;11.590;2023-04-03T05:34:48;7.07;;;6.48;;
14890;SDS011;7537;48.014;11.590;2023-04-03T05:40:15;7.27;;;7.05;;
14890;SDS011;7537;48.014;11.590;2023-04-03T05:45:43;5.81;;;5.61;;
14890;SDS011;7537;48.014;11.590;2023-04-03T05:51:13;7.22;;;5.46;;
14890;SDS011;7537;48.014;11.590;2023-04-03T05:56:41;8.13;;;6.08;;
14890;SDS011;7537;48.014;11.590;2023-04-03T06:02:09;7.99;;;6.96;;
14890;SDS011;7537;48.014;11.590;2023-04-03T06:07:37;6.47;;;6.40;;
14890;SDS011;7537;48.014;11.590;2023-04-03T06:13:05;5.61;;;5.78;;
14890;SDS011;7537;48.014;11.590;2023-04-03T06:18:33;5.35;;;5.29;;
14890;SDS011;7537;48.014;11.590;2023-04-03T06:24:04;6.62;;;5.74;;
14890;SDS011;7537;48.014;11.590;2023-04-03T06:29:31;5.35;;;5.58;;
14890;SDS011;7537;48.014;11.590;2023-04-03T06:35:06;5.47;;;4.94;;
14890;SDS011;7537;48.014;11.590;2023-04-03T06:40:36;5.56;;;5.36;;
14890;SDS011;7537;48.014;11.590;2023-04-03T06:46:04;5.19;;;5.27;;
14890;SDS011;7537;48.014;11.590;2023-04-03T06:51:32;4.99;;;5.00;;
14890;SDS011;7537;48.014;11.590;2023-04-03T06:56:59;5.67;;;4.94;;
14890;SDS011;7537;48.014;11.590;2023-04-03T07:02:30;4.99;;;4.74;;
14890;SDS011;7537;48.014;11.590;2023-04-03T07:07:57;5.17;;;5.11;;
14890;SDS011;7537;48.014;11.590;2023-04-03T07:13:25;7.14;;;5.13;;
14890;SDS011;7537;48.014;11.590;2023-04-03T07:18:52;5.56;;;5.05;;
14890;SDS011;7537;48.014;11.590;2023-04-03T07:24:20;4.55;;;4.33;;
14890;SDS011;7537;48.014;11.590;2023-04-03T07:29:47;6.12;;;4.36;;
14890;SDS011;7537;48.014;11.590;2023-04-03T07:35:19;5.02;;;5.09;;
14890;SDS011;7537;48.014;11.590;2023-04-03T07:40:53;5.12;;;4.85;;
14890;SDS011;7537;48.014;11.590;2023-04-03T07:46:20;5.00;;;4.80;;
14890;SDS011;7537;48.014;11.590;2023-04-03T07:51:48;5.76;;;4.47;;
14890;SDS011;7537;48.014;11.590;2023-04-03T07:57:17;5.59;;;5.46;;
14890;SDS011;7537;48.014;11.590;2023-04-03T08:02:44;5.23;;;4.15;;
14890;SDS011;7537;48.014;11.590;2023-04-03T08:08:13;4.28;;;4.37;;
14890;SDS011;7537;48.014;11.590;2023-04-03T08:13:41;4.67;;;4.74;;
14890;SDS011;7537;48.014;11.590;2023-04-03T08:19:08;6.43;;;5.32;;
14890;SDS011;7537;48.014;11.590;2023-04-03T08:24:35;5.90;;;4.94;;
14890;SDS011;7537;48.014;11.590;2023-04-03T08:30:04;4.57;;;4.22;;
14890;SDS011;7537;48.014;11.590;2023-04-03T08:35:38;6.44;;;4.44;;
14890;SDS011;7537;48.014;11.590;2023-04-03T08:41:13;3.89;;;4.04;;
14890;SDS011;7537;48.014;11.590;2023-04-03T08:46:45;6.21;;;4.91;;
14890;SDS011;7537;48.014;11.590;2023-04-03T08:52:17;4.68;;;4.83;;
14890;SDS011;7537;48.014;11.590;2023-04-03T08:57:57;4.68;;;4.69;;
14890;SDS011;7537;48.014;11.590;2023-04-03T09:03:28;5.59;;;4.82;;
14890;SDS011;7537;48.014;11.590;2023-04-03T09:08:59;7.47;;;5.37;;
14890;SDS011;7537;48.014;11.590;2023-04-03T09:14:30;6.44;;;5.12;;
14890;SDS011;7537;48.014;11.590;2023-04-03T09:20:02;4.65;;;4.76;;
14890;SDS011;7537;48.014;11.590;2023-04-03T09:25:32;5.16;;;4.78;;
14890;SDS011;7537;48.014;11.590;2023-04-03T09:31:01;5.23;;;5.36;;
14890;SDS011;7537;48.014;11.590;2023-04-03T09:36:39;4.87;;;4.78;;
14890;SDS011;7537;48.014;11.590;2023-04-03T09:42:12;4.41;;;4.49;;
14890;SDS011;7537;48.014;11.590;2023-04-03T09:47:42;7.60;;;5.00;;
14890;SDS011;7537;48.014;11.590;2023-04-03T09:53:25;4.46;;;4.57;;
14890;SDS011;7537;48.014;11.590;2023-04-03T09:59:05;3.84;;;3.98;;
14890;SDS011;7537;48.014;11.590;2023-04-03T10:04:39;6.60;;;5.06;;
14890;SDS011;7537;48.014;11.590;2023-04-03T10:10:17;6.37;;;4.81;;
14890;SDS011;7537;48.014;11.590;2023-04-03T10:15:45;6.24;;;5.41;;
14890;SDS011;7537;48.014;11.590;2023-04-03T10:21:14;6.46;;;4.62;;
14890;SDS011;7537;48.014;11.590;2023-04-03T10:26:47;4.23;;;4.19;;
14890;SDS011;7537;48.014;11.590;2023-04-03T10:32:21;5.37;;;5.41;;
14890;SDS011;7537;48.014;11.590;2023-04-03T10:37:58;6.06;;;5.59;;
14890;SDS011;7537;48.014;11.590;2023-04-03T10:43:32;3.91;;;3.98;;
14890;SDS011;7537;48.014;11.590;2023-04-03T10:49:08;3.36;;;3.11;;
14890;SDS011;7537;48.014;11.590;2023-04-03T10:54:39;7.68;;;4.13;;
14890;SDS011;7537;48.014;11.590;2023-04-03T11:00:13;5.58;;;3.98;;
14890;SDS011;7537;48.014;11.590;2023-04-03T11:05:42;3.72;;;3.87;;
14890;SDS011;7537;48.014;11.590;2023-04-03T11:11:13;6.40;;;4.73;;
14890;SDS011;7537;48.014;11.590;2023-04-03T11:16:42;3.54;;;3.69;;
14890;SDS011;7537;48.014;11.590;2023-04-03T11:22:15;5.89;;;4.78;;
14890;SDS011;7537;48.014;11.590;2023-04-03T11:27:46;5.52;;;5.40;;
14890;SDS011;7537;48.014;11.590;2023-04-03T11:33:27;7.00;;;6.69;;
14890;SDS011;7537;48.014;11.590;2023-04-03T11:39:05;10.85;;;6.44;;
14890;SDS011;7537;48.014;11.590;2023-04-03T11:44:37;8.27;;;7.89;;
14890;SDS011;7537;48.014;11.590;2023-04-03T11:50:06;7.91;;;6.43;;
14890;SDS011;7537;48.014;11.590;2023-04-03T11:55:44;8.88;;;7.51;;
14890;SDS011;7537;48.014;11.590;2023-04-03T12:01:12;7.18;;;6.84;;
14890;SDS011;7537;48.014;11.590;2023-04-03T12:07:13;8.88;;;8.37;;
14890;SDS011;7537;48.014;11.590;2023-04-03T12:12:41;8.34;;;7.72;;
14890;SDS011;7537;48.014;11.590;2023-04-03T12:23:57;5.49;;;5.59;;
14890;SDS011;7537;48.014;11.590;2023-04-03T12:29:27;5.43;;;5.24;;
14890;SDS011;7537;48.014;11.590;2023-04-03T12:35:01;6.70;;;6.13;;
14890;SDS011;7537;48.014;11.590;2023-04-03T12:40:36;6.22;;;6.06;;
14890;SDS011;7537;48.014;11.590;2023-04-03T12:46:09;4.96;;;4.99;;
14890;SDS011;7537;48.014;11.590;2023-04-03T12:51:42;4.98;;;4.24;;
14890;SDS011;7537;48.014;11.590;2023-04-03T12:57:11;6.39;;;5.31;;
14890;SDS011;7537;48.014;11.590;2023-04-03T13:02:38;3.09;;;3.00;;
14890;SDS011;7537;48.014;11.590;2023-04-03T13:08:12;3.95;;;3.71;;
14890;SDS011;7537;48.014;11.590;2023-04-03T13:13:54;4.52;;;3.95;;
14890;SDS011;7537;48.014;11.590;2023-04-03T13:19:23;3.74;;;3.80;;
14890;SDS011;7537;48.014;11.590;2023-04-03T13:24:50;5.79;;;4.97;;
14890;SDS011;7537;48.014;11.590;2023-04-03T13:30:27;5.51;;;4.65;;
14890;SDS011;7537;48.014;11.590;2023-04-03T13:36:05;5.69;;;3.96;;
14890;SDS011;7537;48.014;11.590;2023-04-03T13:41:38;3.81;;;3.31;;
14890;SDS011;7537;48.014;11.590;2023-04-03T13:47:15;3.54;;;3.42;;
14890;SDS011;7537;48.014;11.590;2023-04-03T13:52:45;3.22;;;3.13;;
14890;SDS011;7537;48.014;11.590;2023-04-03T13:58:21;3.60;;;3.37;;
14890;SDS011;7537;48.014;11.590;2023-04-03T14:03:52;2.94;;;3.08;;
14890;SDS011;7537;48.014;11.590;2023-04-03T14:09:21;3.75;;;3.77;;
14890;SDS011;7537;48.014;11.590;2023-04-03T14:14:48;3.48;;;3.53;;
14890;SDS011;7537;48.014;11.590;2023-04-03T14:20:16;2.62;;;2.77;;
14890;SDS011;7537;48.014;11.590;2023-04-03T14:25:44;3.81;;;2.37;;
14890;SDS011;7537;48.014;11.590;2023-04-03T14:31:15;2.04;;;1.92;;
14890;SDS011;7537;48.014;11.590;2023-04-03T14:36:43;2.60;;;2.29;;
14890;SDS011;7537;48.014;11.590;2023-04-03T14:42:15;4.74;;;2.03;;
14890;SDS011;7537;48.014;11.590;2023-04-03T14:47:44;1.83;;;1.87;;
14890;SDS011;7537;48.014;11.590;2023-04-03T14:53:16;2.35;;;1.83;;
14890;SDS011;7537;48.014;11.590;2023-04-03T14:58:44;3.68;;;2.95;;
14890;SDS011;7537;48.014;11.590;2023-04-03T15:05:55;3.24;;;2.66;;
14890;SDS011;7537;48.014;11.590;2023-04-03T15:11:23;1.53;;;1.58;;
14890;SDS011;7537;48.014;11.590;2023-04-03T15:16:50;2.03;;;2.03;;
14890;SDS011;7537;48.014;11.590;2023-04-03T15:22:18;1.52;;;1.56;;
14890;SDS011;7537;48.014;11.590;2023-04-03T15:27:47;1.46;;;1.42;;
14890;SDS011;7537;48.014;11.590;2023-04-03T15:33:15;1.33;;;1.23;;
14890;SDS011;7537;48.014;11.590;2023-04-03T15:38:43;1.68;;;1.32;;
14890;SDS011;7537;48.014;11.590;2023-04-03T15:44:13;1.17;;;1.16;;
14890;SDS011;7537;48.014;11.590;2023-04-03T15:49:40;1.62;;;1.31;;
14890;SDS011;7537;48.014;11.590;2023-04-03T15:55:11;1.91;;;1.66;;
14890;SDS011;7537;48.014;11.590;2023-04-03T16:00:39;3.03;;;2.13;;
14890;SDS011;7537;48.014;11.590;2023-04-03T16:06:14;4.67;;;2.74;;
14890;SDS011;7537;48.014;11.590;2023-04-03T16:11:43;3.81;;;2.94;;
14890;SDS011;7537;48.014;11.590;2023-04-03T16:17:18;3.46;;;2.79;;
14890;SDS011;7537;48.014;11.590;2023-04-03T16:22:45;1.39;;;1.51;;
14890;SDS011;7537;48.014;11.590;2023-04-03T16:28:13;3.77;;;1.79;;
14890;SDS011;7537;48.014;11.590;2023-04-03T16:33:41;1.63;;;1.66;;
14890;SDS011;7537;48.014;11.590;2023-04-03T16:39:08;2.59;;;2.05;;
14890;SDS011;7537;48.014;11.590;2023-04-03T16:44:36;2.21;;;1.67;;
14890;SDS011;7537;48.014;11.590;2023-04-03T16:50:06;9.39;;;2.21;;
14890;SDS011;7537;48.014;11.590;2023-04-03T16:55:39;2.27;;;1.82;;
14890;SDS011;7537;48.014;11.590;2023-04-03T17:01:12;5.22;;;2.19;;
14890;SDS011;7537;48.014;11.590;2023-04-03T17:06:43;3.04;;;2.17;;
14890;SDS011;7537;48.014;11.590;2023-04-03T17:12:11;2.86;;;1.10;;
14890;SDS011;7537;48.014;11.590;2023-04-03T17:17:42;2.90;;;1.54;;
14890;SDS011;7537;48.014;11.590;2023-04-03T17:23:09;1.81;;;1.72;;
14890;SDS011;7537;48.014;11.590;2023-04-03T17:28:36;2.54;;;1.88;;
14890;SDS011;7537;48.014;11.590;2023-04-03T17:34:03;2.33;;;2.41;;
14890;SDS011;7537;48.014;11.590;2023-04-03T17:39:31;4.19;;;2.05;;
14890;SDS011;7537;48.014;11.590;2023-04-03T17:44:58;2.22;;;1.64;;
14890;SDS011;7537;48.014;11.590;2023-04-03T17:50:26;2.46;;;2.12;;
14890;SDS011;7537;48.014;11.590;2023-04-03T17:55:53;3.00;;;1.81;;
14890;SDS011;7537;48.014;11.590;2023-04-03T18:01:23;3.66;;;2.06;;
14890;SDS011;7537;48.014;11.590;2023-04-03T18:07:01;2.27;;;2.12;;
14890;SDS011;7537;48.014;11.590;2023-04-03T18:12:32;2.23;;;2.02;;
14890;SDS011;7537;48.014;11.590;2023-04-03T18:18:01;4.94;;;2.37;;
14890;SDS011;7537;48.014;11.590;2023-04-03T18:23:28;4.52;;;3.32;;
14890;SDS011;7537;48.014;11.590;2023-04-03T18:29:00;3.19;;;2.11;;
14890;SDS011;7537;48.014;11.590;2023-04-03T18:34:28;4.65;;;2.80;;
14890;SDS011;7537;48.014;11.590;2023-04-03T18:39:56;3.49;;;3.07;;
14890;SDS011;7537;48.014;11.590;2023-04-03T18:45:23;4.34;;;2.42;;
14890;SDS011;7537;48.014;11.590;2023-04-03T18:51:24;2.51;;;2.54;;
14890;SDS011;7537;48.014;11.590;2023-04-03T18:56:51;2.46;;;2.15;;
14890;SDS011;7537;48.014;11.590;2023-04-03T19:02:19;2.83;;;2.64;;
14890;SDS011;7537;48.014;11.590;2023-04-03T19:07:49;2.88;;;2.79;;
14890;SDS011;7537;48.014;11.590;2023-04-03T19:13:17;5.79;;;3.02;;
14890;SDS011;7537;48.014;11.590;2023-04-03T19:18:44;3.15;;;2.48;;
14890;SDS011;7537;48.014;11.590;2023-04-03T19:24:14;2.68;;;2.57;;
14890;SDS011;7537;48.014;11.590;2023-04-03T19:29:41;3.00;;;2.68;;
14890;SDS011;7537;48.014;11.590;2023-04-03T19:35:09;2.84;;;2.04;;
14890;SDS011;7537;48.014;11.590;2023-04-03T19:40:42;1.94;;;2.05;;
14890;SDS011;7537;48.014;11.590;2023-04-03T19:46:10;2.06;;;1.89;;
14890;SDS011;7537;48.014;11.590;2023-04-03T19:51:38;2.21;;;2.12;;
14890;SDS011;7537;48.014;11.590;2023-04-03T19:57:05;1.64;;;1.39;;
14890;SDS011;7537;48.014;11.590;2023-04-03T20:02:33;2.12;;;2.17;;
14890;SDS011;7537;48.014;11.590;2023-04-03T20:08:04;2.38;;;2.47;;
14890;SDS011;7537;48.014;11.590;2023-04-03T20:13:31;3.60;;;3.31;;
14890;SDS011;7537;48.014;11.590;2023-04-03T20:18:59;4.29;;;2.91;;
14890;SDS011;7537;48.014;11.590;2023-04-03T20:24:30;2.74;;;2.72;;
14890;SDS011;7537;48.014;11.590;2023-04-03T20:29:57;3.06;;;2.91;;
14890;SDS011;7537;48.014;11.590;2023-04-03T20:35:25;2.57;;;2.67;;
14890;SDS011;7537;48.014;11.590;2023-04-03T20:40:56;2.67;;;2.38;;
14890;SDS011;7537;48.014;11.590;2023-04-03T20:46:23;2.79;;;2.84;;
14890;SDS011;7537;48.014;11.590;2023-04-03T20:51:51;3.11;;;3.07;;
14890;SDS011;7537;48.014;11.590;2023-04-03T20:57:18;3.46;;;2.94;;
14890;SDS011;7537;48.014;11.590;2023-04-03T21:02:46;3.15;;;2.92;;
14890;SDS011;7537;48.014;11.590;2023-04-03T21:19:47;2.76;;;2.86;;
14890;SDS011;7537;48.014;11.590;2023-04-03T21:25:15;3.08;;;3.21;;
14890;SDS011;7537;48.014;11.590;2023-04-03T21:30:42;3.18;;;3.04;;
14890;SDS011;7537;48.014;11.590;2023-04-03T21:36:10;4.79;;;3.61;;
14890;SDS011;7537;48.014;11.590;2023-04-03T21:41:40;2.95;;;2.81;;
14890;SDS011;7537;48.014;11.590;2023-04-03T21:47:07;2.85;;;2.88;;
14890;SDS011;7537;48.014;11.590;2023-04-03T21:52:36;4.12;;;3.32;;
14890;SDS011;7537;48.014;11.590;2023-04-03T21:58:03;2.68;;;2.67;;
14890;SDS011;7537;48.014;11.590;2023-04-03T22:03:31;2.98;;;3.04;;
14890;SDS011;7537;48.014;11.590;2023-04-03T22:09:02;3.72;;;3.26;;
14890;SDS011;7537;48.014;11.590;2023-04-03T22:14:35;3.09;;;2.89;;
14890;SDS011;7537;48.014;11.590;2023-04-03T22:20:03;5.42;;;3.18;;
14890;SDS011;7537;48.014;11.590;2023-04-03T22:25:31;3.49;;;3.11;;
14890;SDS011;7537;48.014;11.590;2023-04-03T22:31:02;2.47;;;2.64;;
14890;SDS011;7537;48.014;11.590;2023-04-03T22:36:30;4.72;;;3.43;;
14890;SDS011;7537;48.014;11.590;2023-04-03T22:41:58;3.02;;;2.91;;
14890;SDS011;7537;48.014;11.590;2023-04-03T22:47:25;4.47;;;3.32;;
14890;SDS011;7537;48.014;11.590;2023-04-03T22:53:00;4.66;;;3.41;;
14890;SDS011;7537;48.014;11.590;2023-04-03T22:58:28;4.64;;;2.96;;
14890;SDS011;7537;48.014;11.590;2023-04-03T23:03:56;3.78;;;2.74;;
14890;SDS011;7537;48.014;11.590;2023-04-03T23:09:27;3.77;;;3.28;;
14890;SDS011;7537;48.014;11.590;2023-04-03T23:14:54;2.89;;;2.93;;
14890;SDS011;7537;48.014;11.590;2023-04-03T23:20:21;3.21;;;2.48;;
14890;SDS011;7537;48.014;11.590;2023-04-03T23:25:51;2.71;;;2.59;;
14890;SDS011;7537;48.014;11.590;2023-04-03T23:31:18;3.10;;;1.92;;
14890;SDS011;7537;48.014;11.590;2023-04-03T23:36:46;3.97;;;2.89;;
14890;SDS011;7537;48.014;11.590;2023-04-03T23:42:13;3.19;;;2.78;;
14890;SDS011;7537;48.014;11.590;2023-04-03T23:47:41;2.29;;;2.19;;
14890;SDS011;7537;48.014;11.590;2023-04-03T23:53:08;3.73;;;2.67;;
14890;SDS011;7537;48.014;11.590;2023-04-03T23:58:38;3.24;;;2.31;;
